Houston Heights, Texas
Current Conditions -  °F | °C
As of 4:55 PM on Saturday 20 Dec 2014 (Local Time) from KMCJ Reporting Station
Overcast Overcast  
Wind Chill: 52°   Ceiling: 1000
Heat Index: 52°   Visibility: NA
Dew Point: 48°   Wind: 5mph
Humidity: 88%   Direction: 350°N
Pressure: 30.12"   Gusts: NA
Location:  29.7982°N, 95.4183°W
Report Text: KMCJ 202255Z AUTO 35004KT OVC010 11/09 A3012 RMK AO1
Loading
Personal Weather Stations






























Interactive Weather Map New forecast layout! Learn more

10-Day Weather Forecast

Advertisements
Track Severe Weather on mobile